createdAt,value
2018-07-20T00:00:41.100Z,15.57
2018-07-20T00:01:40.839Z,15.53
2018-07-20T00:02:40.836Z,15.54
2018-07-20T00:03:41.082Z,15.54
2018-07-20T00:04:41.084Z,15.51
2018-07-20T00:05:41.069Z,15.56
2018-07-20T00:06:41.070Z,15.53
2018-07-20T00:07:41.069Z,15.54
2018-07-20T00:08:40.554Z,15.47
2018-07-20T00:09:40.797Z,15.41
2018-07-20T00:10:41.062Z,15.43
2018-07-20T00:11:41.055Z,15.47
2018-07-20T00:12:41.042Z,15.47
2018-07-20T00:13:41.072Z,15.43
2018-07-20T00:14:41.023Z,15.41
2018-07-20T00:15:40.768Z,15.36
2018-07-20T00:16:40.800Z,15.44
2018-07-20T00:17:41.011Z,15.39
2018-07-20T00:18:41.013Z,15.36
2018-07-20T00:19:41.006Z,15.34
2018-07-20T00:20:40.746Z,15.34
2018-07-20T00:21:40.988Z,15.29
2018-07-20T00:22:40.984Z,15.31
2018-07-20T00:23:40.981Z,15.36
2018-07-20T00:24:40.974Z,15.25
2018-07-20T00:25:40.973Z,15.39
2018-07-20T00:26:40.963Z,15.27
2018-07-20T00:27:40.723Z,15.25
2018-07-20T00:28:40.949Z,15.25
2018-07-20T00:29:40.701Z,15.25
2018-07-20T00:30:40.691Z,15.23
2018-07-20T00:31:40.939Z,15.29
2018-07-20T00:32:40.939Z,15.2
2018-07-20T00:33:40.924Z,15.23
2018-07-20T00:34:40.921Z,15.17
2018-07-20T00:35:40.914Z,15.17
2018-07-20T00:36:40.907Z,15.16
2018-07-20T00:37:40.649Z,15.23
2018-07-20T00:38:40.903Z,15.17
2018-07-20T00:39:40.890Z,15.17
2018-07-20T00:40:40.897Z,15.11
2018-07-20T00:41:40.885Z,15.19
2018-07-20T00:42:40.873Z,15.16
2018-07-20T00:43:40.875Z,15.02
2018-07-20T00:44:40.624Z,14.98
2018-07-20T00:45:40.861Z,15.11
2018-07-20T00:46:40.855Z,15.06
2018-07-20T00:47:40.853Z,14.98
2018-07-20T00:48:40.633Z,15.07
2018-07-20T00:49:40.584Z,15.06
2018-07-20T00:50:40.838Z,15.02
2018-07-20T00:51:40.583Z,15.06
2018-07-20T00:52:40.863Z,14.92
2018-07-20T00:53:40.817Z,14.91
2018-07-20T00:54:40.814Z,15.06
2018-07-20T00:55:40.803Z,14.89
2018-07-20T00:56:40.816Z,15.01
2018-07-20T00:57:40.798Z,14.92
2018-07-20T00:58:40.789Z,14.99
2018-07-20T00:59:40.815Z,14.98
2018-07-20T01:00:40.777Z,14.89
2018-07-20T01:01:40.775Z,14.92
2018-07-20T01:02:40.764Z,14.84
2018-07-20T01:03:40.509Z,14.91
2018-07-20T01:04:40.761Z,14.89
2018-07-20T01:05:40.761Z,14.83
2018-07-20T01:06:40.745Z,14.88
2018-07-20T01:07:40.740Z,14.83
2018-07-20T01:08:40.732Z,14.83
2018-07-20T01:09:40.730Z,14.88
2018-07-20T01:10:40.223Z,14.84
2018-07-20T01:11:40.744Z,14.88
2018-07-20T01:12:40.459Z,14.78
2018-07-20T01:13:40.714Z,14.78
2018-07-20T01:14:40.447Z,14.8
2018-07-20T01:15:40.723Z,14.7
2018-07-20T01:16:40.695Z,14.78
2018-07-20T01:17:40.439Z,14.72
2018-07-20T01:18:40.678Z,14.75
2018-07-20T01:19:40.419Z,14.7
2018-07-20T01:20:40.413Z,14.75
2018-07-20T01:21:40.662Z,14.68
2018-07-20T01:22:40.659Z,14.7
2018-07-20T01:23:40.646Z,14.69
2018-07-20T01:24:40.648Z,14.61
2018-07-20T01:25:40.636Z,14.7
2018-07-20T01:26:40.633Z,14.69
2018-07-20T01:27:40.639Z,14.68
2018-07-20T01:28:40.367Z,14.7
2018-07-20T01:29:40.615Z,14.65
2018-07-20T01:30:40.606Z,14.64
2018-07-20T01:31:40.601Z,14.65
2018-07-20T01:32:40.596Z,14.57
2018-07-20T01:33:40.339Z,14.65
2018-07-20T01:34:40.585Z,14.58
2018-07-20T01:35:40.339Z,14.65
2018-07-20T01:36:40.571Z,14.55
2018-07-20T01:37:40.567Z,14.55
2018-07-20T01:38:40.563Z,14.51
2018-07-20T01:39:40.305Z,14.51
2018-07-20T01:40:40.550Z,14.6
2018-07-20T01:41:40.549Z,14.55
2018-07-20T01:42:40.537Z,14.55
2018-07-20T01:43:40.538Z,14.51
2018-07-20T01:44:40.275Z,14.45
2018-07-20T01:45:40.018Z,14.47
2018-07-20T01:46:40.519Z,14.4
2018-07-20T01:47:40.533Z,14.45
2018-07-20T01:48:40.507Z,14.42
2018-07-20T01:49:40.501Z,14.36
2018-07-20T01:50:40.246Z,14.43
2018-07-20T01:51:39.983Z,14.51
2018-07-20T01:52:40.482Z,14.36
2018-07-20T01:53:40.475Z,14.36
2018-07-20T01:54:40.467Z,14.32
2018-07-20T01:55:40.466Z,14.29
2018-07-20T01:56:40.208Z,14.42
2018-07-20T01:57:40.457Z,14.32
2018-07-20T01:58:40.445Z,14.33
2018-07-20T01:59:40.438Z,14.27
2018-07-20T02:00:40.183Z,14.25
2018-07-20T02:01:40.427Z,14.24
2018-07-20T02:02:40.426Z,14.28
2018-07-20T02:03:40.417Z,14.28
2018-07-20T02:04:40.412Z,14.32
2018-07-20T02:05:40.403Z,14.29
2018-07-20T02:06:40.403Z,14.33
2018-07-20T02:07:40.395Z,14.21
2018-07-20T02:08:40.390Z,14.32
2018-07-20T02:09:40.381Z,14.21
2018-07-20T02:10:40.380Z,14.21
2018-07-20T02:11:40.369Z,14.25
2018-07-20T02:12:40.362Z,14.22
2018-07-20T02:13:40.357Z,14.12
2018-07-20T02:14:40.350Z,14.21
2018-07-20T02:15:40.347Z,14.17
2018-07-20T02:16:40.092Z,14.15
2018-07-20T02:17:40.332Z,14.17
2018-07-20T02:18:40.077Z,14.21
2018-07-20T02:19:40.319Z,14.22
2018-07-20T02:20:40.064Z,14.2
2018-07-20T02:21:40.060Z,14.2
2018-07-20T02:22:40.308Z,14.17
2018-07-20T02:23:40.298Z,14.07
2018-07-20T02:24:40.040Z,14.1
2018-07-20T02:25:40.293Z,14.04
2018-07-20T02:26:40.285Z,14.14
2018-07-20T02:27:40.022Z,14.09
2018-07-20T02:28:40.275Z,14.09
2018-07-20T02:29:40.436Z,14.09
2018-07-20T02:30:40.013Z,14.07
2018-07-20T02:31:40.011Z,14.12
2018-07-20T02:32:40.249Z,14.03
2018-07-20T02:33:39.987Z,14.07
2018-07-20T02:34:39.981Z,14.1
2018-07-20T02:35:40.232Z,14.07
2018-07-20T02:36:40.223Z,14.04
2018-07-20T02:37:39.711Z,14.09
2018-07-20T02:38:40.207Z,14.06
2018-07-20T02:39:40.215Z,14.03
2018-07-20T02:40:40.201Z,14.04
2018-07-20T02:41:40.196Z,14.07
2018-07-20T02:42:40.183Z,13.99
2018-07-20T02:43:40.196Z,14.06
2018-07-20T02:44:40.174Z,14.09
2018-07-20T02:45:40.172Z,14.03
2018-07-20T02:46:39.909Z,14.07
2018-07-20T02:47:40.164Z,14.03
2018-07-20T02:48:40.149Z,13.95
2018-07-20T02:49:40.148Z,13.96
2018-07-20T02:50:40.151Z,14.02
2018-07-20T02:51:39.880Z,14.02
2018-07-20T02:52:39.871Z,13.88
2018-07-20T02:53:39.863Z,13.89
2018-07-20T02:54:40.109Z,14
2018-07-20T02:55:39.852Z,13.88
2018-07-20T02:56:40.102Z,13.89
2018-07-20T02:57:39.840Z,13.92
2018-07-20T02:58:40.097Z,13.89
2018-07-20T02:59:40.089Z,13.97
2018-07-20T03:00:40.078Z,13.95
2018-07-20T03:01:40.068Z,13.95
2018-07-20T03:02:40.062Z,13.88
2018-07-20T03:03:40.063Z,13.84
2018-07-20T03:04:40.049Z,13.97
2018-07-20T03:05:39.790Z,13.87
2018-07-20T03:06:39.782Z,13.89
2018-07-20T03:07:40.028Z,13.97
2018-07-20T03:08:40.053Z,13.95
2018-07-20T03:09:40.017Z,13.95
2018-07-20T03:10:40.010Z,14.04
2018-07-20T03:11:40.009Z,14
2018-07-20T03:12:39.748Z,14.03
2018-07-20T03:13:39.742Z,14.02
2018-07-20T03:14:39.986Z,14.02
2018-07-20T03:15:39.984Z,14
2018-07-20T03:16:39.978Z,14.04
2018-07-20T03:17:39.716Z,14.07
2018-07-20T03:18:39.709Z,14.04
2018-07-20T03:19:39.954Z,14.06
2018-07-20T03:20:39.948Z,14.02
2018-07-20T03:21:39.945Z,14.04
2018-07-20T03:22:39.935Z,14.07
2018-07-20T03:23:39.683Z,14.14
2018-07-20T03:24:39.925Z,14.07
2018-07-20T03:25:39.919Z,14.15
2018-07-20T03:26:39.911Z,14.09
2018-07-20T03:27:39.910Z,14.06
2018-07-20T03:28:39.901Z,14.22
2018-07-20T03:29:39.914Z,14.18
2018-07-20T03:30:39.887Z,14.14
2018-07-20T03:31:39.636Z,14.2
2018-07-20T03:32:39.736Z,14.2
2018-07-20T03:33:39.874Z,14.24
2018-07-20T03:34:39.872Z,14.22
2018-07-20T03:35:39.610Z,14.24
2018-07-20T03:36:39.850Z,14.29
2018-07-20T03:37:39.858Z,14.24
2018-07-20T03:38:39.844Z,14.27
2018-07-20T03:39:39.830Z,14.21
2018-07-20T03:40:39.322Z,14.35
2018-07-20T03:41:39.823Z,14.37
2018-07-20T03:42:39.813Z,14.46
2018-07-20T03:43:39.818Z,14.42
2018-07-20T03:44:39.805Z,14.51
2018-07-20T03:45:39.544Z,14.52
2018-07-20T03:46:39.788Z,14.62
2018-07-20T03:47:39.534Z,14.73
2018-07-20T03:48:39.778Z,14.88
2018-07-20T03:49:39.779Z,14.96
2018-07-20T03:50:39.516Z,15.06
2018-07-20T03:51:39.561Z,15.14
2018-07-20T03:52:39.758Z,15.32
2018-07-20T03:53:39.757Z,15.5
2018-07-20T03:54:39.496Z,15.65
2018-07-20T03:55:39.737Z,15.75
2018-07-20T03:56:39.732Z,16.05
2018-07-20T03:57:39.492Z,16.11
2018-07-20T03:58:39.473Z,16.35
2018-07-20T03:59:39.724Z,16.52
2018-07-20T04:00:39.713Z,16.7
2018-07-20T04:01:39.712Z,16.91
2018-07-20T04:02:39.707Z,17.08
2018-07-20T04:03:39.702Z,17.3
2018-07-20T04:04:39.453Z,17.38
2018-07-20T04:05:39.693Z,17.64
2018-07-20T04:06:39.692Z,17.81
2018-07-20T04:07:39.441Z,17.99
2018-07-20T04:08:39.681Z,18.25
2018-07-20T04:09:39.676Z,18.32
2018-07-20T04:10:39.421Z,18.45
2018-07-20T04:11:39.419Z,18.72
2018-07-20T04:12:39.415Z,18.91
2018-07-20T04:13:39.664Z,19.06
2018-07-20T04:14:39.685Z,19.28
2018-07-20T04:15:39.670Z,19.48
2018-07-20T04:16:39.653Z,19.8
2018-07-20T04:17:39.666Z,19.87
2018-07-20T04:18:39.396Z,20.06
2018-07-20T04:19:39.654Z,20.35
2018-07-20T04:20:39.645Z,20.66
2018-07-20T04:21:39.644Z,20.92
2018-07-20T04:22:39.642Z,21.16
2018-07-20T04:23:39.646Z,21.34
2018-07-20T04:24:39.635Z,21.52
2018-07-20T04:25:39.645Z,21.84
2018-07-20T04:26:39.634Z,21.96
2018-07-20T04:27:39.384Z,22.25
2018-07-20T04:28:39.630Z,22.42
2018-07-20T04:29:39.637Z,22.72
2018-07-20T04:30:39.631Z,22.83
2018-07-20T04:31:39.629Z,23.05
2018-07-20T04:32:39.636Z,23.25
2018-07-20T04:33:39.629Z,23.5
2018-07-20T04:34:39.628Z,23.78
2018-07-20T04:35:39.628Z,24.02
2018-07-20T04:36:39.633Z,24.16
2018-07-20T04:37:39.633Z,24.4
2018-07-20T04:38:39.381Z,24.6
2018-07-20T04:39:39.634Z,24.84
2018-07-20T04:40:39.634Z,25.06
2018-07-20T04:41:39.388Z,25.32
2018-07-20T04:42:39.639Z,25.47
2018-07-20T04:43:39.638Z,25.75
2018-07-20T04:44:39.643Z,25.87
2018-07-20T04:45:39.646Z,26.17
2018-07-20T04:46:39.398Z,26.39
2018-07-20T04:47:39.653Z,26.69
2018-07-20T04:48:39.653Z,26.88
2018-07-20T04:49:39.661Z,27.1
2018-07-20T04:50:39.662Z,27.28
2018-07-20T04:51:39.661Z,27.62
2018-07-20T04:52:39.419Z,27.74
2018-07-20T04:53:39.692Z,28.06
2018-07-20T04:54:39.426Z,28.12
2018-07-20T04:55:39.684Z,28.39
2018-07-20T04:56:39.684Z,28.52
2018-07-20T04:57:39.438Z,28.81
2018-07-20T04:58:39.731Z,28.86
2018-07-20T04:59:39.710Z,29.05
2018-07-20T05:00:39.714Z,29.23
2018-07-20T05:01:39.961Z,29.39
2018-07-20T05:02:39.716Z,29.53
2018-07-20T05:03:39.808Z,29.73
2018-07-20T05:04:39.478Z,29.9
2018-07-20T05:05:39.231Z,30.04
2018-07-20T05:06:40.045Z,30.23
2018-07-20T05:07:39.499Z,30.47
2018-07-20T05:08:39.754Z,30.62
2018-07-20T05:09:39.761Z,30.76
2018-07-20T05:10:39.517Z,30.98
2018-07-20T05:11:39.783Z,31.12
2018-07-20T05:12:39.782Z,31.25
2018-07-20T05:13:39.787Z,31.46
2018-07-20T05:14:39.552Z,31.63
2018-07-20T05:15:39.555Z,31.75
2018-07-20T05:16:39.819Z,31.84
2018-07-20T05:17:39.830Z,31.99
2018-07-20T05:18:39.833Z,32.22
2018-07-20T05:19:39.832Z,32.32
2018-07-20T05:20:39.845Z,32.55
2018-07-20T05:21:39.607Z,32.55
2018-07-20T05:22:39.608Z,32.67
2018-07-20T05:23:39.620Z,32.78
2018-07-20T05:24:39.884Z,32.89
2018-07-20T05:25:39.887Z,33.11
2018-07-20T05:26:39.644Z,33.22
2018-07-20T05:27:39.663Z,33.31
2018-07-20T05:28:39.933Z,33.34
2018-07-20T05:29:39.681Z,33.51
2018-07-20T05:30:39.933Z,33.53
2018-07-20T05:31:39.694Z,33.66
2018-07-20T05:32:39.800Z,33.79
2018-07-20T05:33:39.968Z,33.88
2018-07-20T05:34:39.972Z,34.02
2018-07-20T05:35:39.978Z,34.13
2018-07-20T05:36:39.738Z,34.25
2018-07-20T05:37:39.747Z,34.25
2018-07-20T05:38:39.777Z,34.32
2018-07-20T05:39:39.773Z,34.37
2018-07-20T05:40:39.778Z,34.56
2018-07-20T05:41:40.045Z,34.65
2018-07-20T05:42:40.058Z,34.81
2018-07-20T05:43:40.066Z,34.84
2018-07-20T05:44:40.093Z,34.96
2018-07-20T05:45:40.090Z,35.1
2018-07-20T05:46:40.092Z,35.15
2018-07-20T05:47:40.107Z,35.23
2018-07-20T05:48:40.111Z,35.29
2018-07-20T05:49:40.133Z,35.41
2018-07-20T05:50:40.139Z,35.47
2018-07-20T05:51:39.895Z,35.52
2018-07-20T05:52:40.155Z,35.56
2018-07-20T05:53:40.169Z,35.72
2018-07-20T05:54:40.178Z,35.78
2018-07-20T05:55:40.189Z,35.84
2018-07-20T05:56:39.952Z,35.94
2018-07-20T05:57:40.210Z,36
2018-07-20T05:58:40.224Z,36.01
2018-07-20T05:59:39.982Z,36.09
2018-07-20T06:00:40.247Z,36.17
2018-07-20T06:01:40.259Z,36.19
2018-07-20T06:02:40.018Z,36.28
2018-07-20T06:03:40.278Z,36.27
2018-07-20T06:04:40.291Z,36.35
2018-07-20T06:05:40.498Z,36.37
2018-07-20T06:06:40.067Z,36.41
2018-07-20T06:07:40.367Z,36.38
2018-07-20T06:08:40.339Z,36.31
2018-07-20T06:09:40.358Z,36.43
2018-07-20T06:10:40.110Z,36.38
2018-07-20T06:11:40.379Z,36.35
2018-07-20T06:12:40.388Z,36.43
2018-07-20T06:13:40.399Z,36.47
2018-07-20T06:14:40.410Z,36.56
2018-07-20T06:15:40.176Z,36.69
2018-07-20T06:16:40.439Z,36.84
2018-07-20T06:17:40.448Z,36.87
2018-07-20T06:18:40.461Z,36.78
2018-07-20T06:19:40.512Z,36.8
2018-07-20T06:20:40.242Z,36.83
2018-07-20T06:21:40.499Z,36.94
2018-07-20T06:22:40.512Z,37.03
2018-07-20T06:23:40.419Z,37.03
2018-07-20T06:24:40.546Z,37.21
2018-07-20T06:25:40.307Z,37.12
2018-07-20T06:26:40.569Z,37.29
2018-07-20T06:27:40.323Z,37.34
2018-07-20T06:28:40.590Z,37.39
2018-07-20T06:29:40.781Z,37.5
2018-07-20T06:30:40.566Z,37.62
2018-07-20T06:31:40.627Z,37.7
2018-07-20T06:32:40.645Z,37.74
2018-07-20T06:33:40.404Z,37.72
2018-07-20T06:34:40.417Z,37.78
2018-07-20T06:35:40.685Z,37.85
2018-07-20T06:36:40.704Z,37.89
2018-07-20T06:37:40.717Z,37.93
2018-07-20T06:38:40.472Z,37.96
2018-07-20T06:39:40.736Z,38.01
2018-07-20T06:40:40.891Z,38.15
2018-07-20T06:41:40.262Z,38.07
2018-07-20T06:42:40.538Z,38.26
2018-07-20T06:43:40.539Z,38.25
2018-07-20T06:44:40.809Z,38.26
2018-07-20T06:45:40.834Z,38.34
2018-07-20T06:46:40.589Z,38.31
2018-07-20T06:47:40.855Z,38.37
2018-07-20T06:48:40.617Z,38.25
2018-07-20T06:49:40.902Z,38.31
2018-07-20T06:50:40.894Z,38.38
2018-07-20T06:51:40.906Z,38.38
2018-07-20T06:52:40.919Z,38.47
2018-07-20T06:53:40.932Z,38.42
2018-07-20T06:54:40.954Z,38.42
2018-07-20T06:55:40.712Z,38.47
2018-07-20T06:56:40.979Z,38.25
2018-07-20T06:57:40.989Z,38.22
2018-07-20T06:58:40.757Z,38.16
2018-07-20T06:59:41.021Z,38.18
2018-07-20T07:00:41.036Z,38.15
2018-07-20T07:01:41.063Z,38.18
2018-07-20T07:02:41.067Z,38.18
2018-07-20T07:03:41.126Z,38.25
2018-07-20T07:04:40.842Z,38.22
2018-07-20T07:05:40.853Z,38.2
2018-07-20T07:06:40.868Z,38.2
2018-07-20T07:07:40.890Z,38.2
2018-07-20T07:08:40.901Z,38.28
2018-07-20T07:09:40.920Z,38.23
2018-07-20T07:10:41.178Z,38.26
2018-07-20T07:11:41.198Z,38.34
2018-07-20T07:12:41.207Z,38.4
2018-07-20T07:13:41.222Z,38.38
2018-07-20T07:14:40.985Z,38.41
2018-07-20T07:15:41.257Z,38.35
2018-07-20T07:16:41.268Z,38.34
2018-07-20T07:17:41.291Z,38.25
2018-07-20T07:18:41.355Z,38.4
2018-07-20T07:19:41.314Z,38.44
2018-07-20T07:20:41.321Z,38.37
2018-07-20T07:21:41.353Z,38.41
2018-07-20T07:22:41.370Z,38.42
2018-07-20T07:23:41.538Z,38.46
2018-07-20T07:24:41.393Z,38.35
2018-07-20T07:25:41.404Z,38.41
2018-07-20T07:26:41.414Z,38.41
2018-07-20T07:27:41.431Z,38.4
2018-07-20T07:28:41.442Z,38.41
2018-07-20T07:29:41.460Z,38.34
2018-07-20T07:30:41.474Z,38.28
2018-07-20T07:31:41.248Z,38.35
2018-07-20T07:32:41.256Z,38.28
2018-07-20T07:33:42.792Z,38.38
2018-07-20T07:34:41.531Z,38.37
2018-07-20T07:35:41.309Z,38.32
2018-07-20T07:36:41.562Z,38.32
2018-07-20T07:37:41.583Z,38.12
2018-07-20T07:38:41.595Z,38
2018-07-20T07:39:41.620Z,37.81
2018-07-20T07:40:41.369Z,37.78
2018-07-20T07:41:41.394Z,37.67
2018-07-20T07:42:41.673Z,37.55
2018-07-20T07:43:41.415Z,37.6
2018-07-20T07:44:41.691Z,37.5
2018-07-20T07:45:41.455Z,37.6
2018-07-20T07:46:41.458Z,37.51
2018-07-20T07:47:41.727Z,37.46
2018-07-20T07:48:41.499Z,37.46
2018-07-20T07:49:41.757Z,37.55
2018-07-20T07:50:41.769Z,37.43
2018-07-20T07:51:41.787Z,37.29
2018-07-20T07:52:41.807Z,37.13
2018-07-20T07:53:41.815Z,37.12
2018-07-20T07:54:41.847Z,37.18
2018-07-20T07:55:41.599Z,37.13
2018-07-20T07:56:41.608Z,37.17
2018-07-20T07:57:41.623Z,37.2
2018-07-20T07:58:41.902Z,37.28
2018-07-20T07:59:41.921Z,37.36
2018-07-20T08:00:41.923Z,37.49
2018-07-20T08:01:41.946Z,37.28
2018-07-20T08:02:41.950Z,37.15
2018-07-20T08:03:42.136Z,37.03
2018-07-20T08:04:41.984Z,37.02
2018-07-20T08:05:42.005Z,36.93
2018-07-20T08:06:41.791Z,36.91
2018-07-20T08:07:41.775Z,36.78
2018-07-20T08:08:42.082Z,36.69
2018-07-20T08:09:42.307Z,36.56
2018-07-20T08:10:42.079Z,36.56
2018-07-20T08:11:42.086Z,36.5
2018-07-20T08:12:41.843Z,36.39
2018-07-20T08:13:41.858Z,36.37
2018-07-20T08:14:41.870Z,36.38
2018-07-20T08:15:42.237Z,36.35
2018-07-20T08:16:42.152Z,36.27
2018-07-20T08:17:42.163Z,36.07
2018-07-20T08:18:42.187Z,36.12
2018-07-20T08:19:41.944Z,36.03
2018-07-20T08:20:42.205Z,36.01
2018-07-20T08:21:41.988Z,35.93
2018-07-20T08:22:42.231Z,36
2018-07-20T08:23:42.002Z,36
2018-07-20T08:24:42.259Z,36.19
2018-07-20T08:25:42.278Z,36.35
2018-07-20T08:26:42.286Z,36.43
2018-07-20T08:27:42.057Z,36.53
2018-07-20T08:28:42.064Z,36.37
2018-07-20T08:29:42.331Z,36.32
2018-07-20T08:30:42.344Z,36.13
2018-07-20T08:31:42.359Z,35.94
2018-07-20T08:32:42.381Z,35.81
2018-07-20T08:33:42.389Z,35.59
2018-07-20T08:34:42.450Z,35.53
2018-07-20T08:35:41.921Z,35.5
2018-07-20T08:36:42.434Z,35.47
2018-07-20T08:37:42.433Z,35.37
2018-07-20T08:38:42.466Z,35.36
2018-07-20T08:39:42.461Z,35.26
2018-07-20T08:40:42.486Z,35.21
2018-07-20T08:41:42.498Z,35.14
2018-07-20T08:42:42.504Z,35.16
2018-07-20T08:43:42.517Z,34.99
2018-07-20T08:44:42.536Z,34.92
2018-07-20T08:45:42.539Z,34.82
2018-07-20T08:46:42.822Z,34.81
2018-07-20T08:47:42.571Z,34.81
2018-07-20T08:48:42.329Z,34.82
2018-07-20T08:49:42.346Z,34.84
2018-07-20T08:50:42.606Z,34.66
2018-07-20T08:51:42.373Z,34.64
2018-07-20T08:52:42.642Z,34.53
2018-07-20T08:53:42.675Z,34.64
2018-07-20T08:54:42.664Z,34.56
2018-07-20T08:55:42.674Z,34.44
2018-07-20T08:56:42.437Z,34.52
2018-07-20T08:57:42.449Z,34.39
2018-07-20T08:58:42.719Z,34.4
2018-07-20T08:59:42.732Z,34.24
2018-07-20T09:00:42.751Z,34.16
2018-07-20T09:01:42.762Z,34
2018-07-20T09:02:42.780Z,33.82
2018-07-20T09:03:43.102Z,33.75
2018-07-20T09:04:42.850Z,33.59
2018-07-20T09:05:42.813Z,33.47
2018-07-20T09:06:42.561Z,33.32
2018-07-20T09:07:42.826Z,33.23
2018-07-20T09:08:42.843Z,33.06
2018-07-20T09:09:42.844Z,32.89
2018-07-20T09:10:42.857Z,32.78
2018-07-20T09:11:42.866Z,32.62
2018-07-20T09:12:42.878Z,32.55
2018-07-20T09:13:43.325Z,32.22
2018-07-20T09:14:42.898Z,32.03
2018-07-20T09:15:42.656Z,31.89
2018-07-20T09:16:42.664Z,31.76
2018-07-20T09:17:42.932Z,31.65
2018-07-20T09:18:42.940Z,31.62
2018-07-20T09:19:42.944Z,31.5
2018-07-20T09:20:43.362Z,31.44
2018-07-20T09:21:42.704Z,31.28
2018-07-20T09:22:42.977Z,31.19
2018-07-20T09:23:42.973Z,31.19
2018-07-20T09:24:42.760Z,31.01
2018-07-20T09:25:42.995Z,30.98
2018-07-20T09:26:42.748Z,30.83
2018-07-20T09:27:42.751Z,30.76
2018-07-20T09:28:43.010Z,30.51
2018-07-20T09:29:43.018Z,30.47
2018-07-20T09:30:42.782Z,30.42
2018-07-20T09:31:43.036Z,30.34
2018-07-20T09:32:42.789Z,30.22
2018-07-20T09:33:42.543Z,30.13
2018-07-20T09:34:43.062Z,30.05
2018-07-20T09:35:43.061Z,30
2018-07-20T09:36:43.063Z,30
2018-07-20T09:37:42.820Z,29.94
2018-07-20T09:38:43.078Z,29.79
2018-07-20T09:39:43.131Z,29.73
2018-07-20T09:40:43.089Z,29.71
2018-07-20T09:41:43.113Z,29.53
2018-07-20T09:42:43.233Z,29.3
2018-07-20T09:43:43.105Z,29.02
2018-07-20T09:44:43.117Z,28.98
2018-07-20T09:45:43.117Z,28.67
2018-07-20T09:46:43.133Z,28.67
2018-07-20T09:47:43.131Z,28.59
2018-07-20T09:48:42.886Z,28.56
2018-07-20T09:49:43.141Z,28.64
2018-07-20T09:50:43.143Z,28.64
2018-07-20T09:51:43.153Z,28.71
2018-07-20T09:52:43.152Z,28.76
2018-07-20T09:53:43.167Z,28.71
2018-07-20T09:54:43.177Z,28.7
2018-07-20T09:55:43.212Z,28.86
2018-07-20T09:56:43.173Z,28.83
2018-07-20T09:57:42.928Z,28.81
2018-07-20T09:58:43.184Z,28.71
2018-07-20T09:59:43.410Z,28.64
2018-07-20T10:00:43.193Z,28.61
2018-07-20T10:01:43.197Z,28.49
2018-07-20T10:02:43.202Z,28.48
2018-07-20T10:03:43.205Z,28.55
2018-07-20T10:04:43.209Z,28.58
2018-07-20T10:05:42.712Z,28.64
2018-07-20T10:06:43.219Z,28.66
2018-07-20T10:07:43.228Z,28.62
2018-07-20T10:08:42.998Z,28.67
2018-07-20T10:09:43.235Z,28.74
2018-07-20T10:10:43.239Z,28.77
2018-07-20T10:11:42.993Z,28.86
2018-07-20T10:12:43.368Z,28.86
2018-07-20T10:13:43.252Z,28.89
2018-07-20T10:14:43.003Z,28.93
2018-07-20T10:15:43.261Z,28.86
2018-07-20T10:16:43.311Z,28.83
2018-07-20T10:17:43.271Z,28.61
2018-07-20T10:18:43.027Z,28.39
2018-07-20T10:19:43.299Z,28.24
2018-07-20T10:20:43.296Z,28.21
2018-07-20T10:21:43.286Z,28.12
2018-07-20T10:22:43.312Z,28.06
2018-07-20T10:23:43.297Z,28.06
2018-07-20T10:24:43.301Z,27.88
2018-07-20T10:25:43.251Z,27.78
2018-07-20T10:26:43.065Z,27.74
2018-07-20T10:28:43.345Z,27.75
2018-07-20T10:29:43.319Z,27.84
2018-07-20T10:30:43.470Z,27.96
2018-07-20T10:31:43.325Z,27.97
2018-07-20T10:32:43.331Z,27.97
2018-07-20T10:33:43.335Z,27.88
2018-07-20T10:34:43.343Z,27.82
2018-07-20T10:35:43.093Z,27.81
2018-07-20T10:36:43.517Z,27.82
2018-07-20T10:37:43.112Z,28.02
2018-07-20T10:38:43.353Z,28
2018-07-20T10:39:43.369Z,28.07
2018-07-20T10:40:43.125Z,28.11
2018-07-20T10:41:43.370Z,28.24
2018-07-20T10:42:43.370Z,28.37
2018-07-20T10:43:43.123Z,28.39
2018-07-20T10:44:43.126Z,28.41
2018-07-20T10:45:43.129Z,28.48
2018-07-20T10:46:43.131Z,28.56
2018-07-20T10:47:43.391Z,28.59
2018-07-20T10:48:43.141Z,28.62
2018-07-20T10:49:43.404Z,28.66
2018-07-20T10:50:43.418Z,28.59
2018-07-20T10:51:43.404Z,28.51
2018-07-20T10:52:43.418Z,28.58
2018-07-20T10:53:43.418Z,28.56
2018-07-20T10:54:43.426Z,28.58
2018-07-20T10:55:43.420Z,28.58
2018-07-20T10:56:43.431Z,28.64
2018-07-20T10:57:43.635Z,28.68
2018-07-20T10:58:43.185Z,28.68
2018-07-20T10:59:43.448Z,28.83
2018-07-20T11:00:43.186Z,28.89
2018-07-20T11:01:43.734Z,28.93
2018-07-20T11:02:42.950Z,28.88
2018-07-20T11:03:43.453Z,28.85
2018-07-20T11:04:43.456Z,28.78
2018-07-20T11:05:43.464Z,28.83
2018-07-20T11:06:43.465Z,28.8
2018-07-20T11:07:43.469Z,28.85
2018-07-20T11:08:43.470Z,28.93
2018-07-20T11:09:43.497Z,29.05
2018-07-20T11:10:43.498Z,29.11
2018-07-20T11:11:43.494Z,29.04
2018-07-20T11:12:43.500Z,29.14
2018-07-20T11:13:43.603Z,28.92
2018-07-20T11:14:43.261Z,28.83
2018-07-20T11:15:43.513Z,28.85
2018-07-20T11:16:43.715Z,28.76
2018-07-20T11:17:43.512Z,28.86
2018-07-20T11:18:43.527Z,28.77
2018-07-20T11:19:43.516Z,28.67
2018-07-20T11:20:43.538Z,28.61
2018-07-20T11:21:43.525Z,28.58
2018-07-20T11:22:43.528Z,28.61
2018-07-20T11:23:43.290Z,28.39
2018-07-20T11:24:43.540Z,28.37
2018-07-20T11:25:43.290Z,28.34
2018-07-20T11:26:43.548Z,28.39
2018-07-20T11:27:43.302Z,28.18
2018-07-20T11:28:43.556Z,28.24
2018-07-20T11:29:43.557Z,28.22
2018-07-20T11:30:43.620Z,28.18
2018-07-20T11:31:43.575Z,28.4
2018-07-20T11:32:43.578Z,28.4
2018-07-20T11:33:43.597Z,28.43
2018-07-20T11:34:43.400Z,28.55
2018-07-20T11:35:43.587Z,28.68
2018-07-20T11:36:43.338Z,28.85
2018-07-20T11:37:43.599Z,28.9
2018-07-20T11:38:43.594Z,29.05
2018-07-20T11:39:43.597Z,29.27
2018-07-20T11:40:43.601Z,29.45
2018-07-20T11:41:43.613Z,29.55
2018-07-20T11:42:43.616Z,29.58
2018-07-20T11:43:43.368Z,29.71
2018-07-20T11:44:43.631Z,29.68
2018-07-20T11:45:43.378Z,29.73
2018-07-20T11:46:43.644Z,29.82
2018-07-20T11:47:43.387Z,29.9
2018-07-20T11:48:43.168Z,29.94
2018-07-20T11:49:43.651Z,29.95
2018-07-20T11:50:43.647Z,30.02
2018-07-20T11:51:43.659Z,30.2
2018-07-20T11:52:43.675Z,30.29
2018-07-20T11:53:43.410Z,30.49
2018-07-20T11:54:43.667Z,30.47
2018-07-20T11:55:43.677Z,30.53
2018-07-20T11:56:43.429Z,30.62
2018-07-20T11:57:43.431Z,30.73
2018-07-20T11:58:44.118Z,30.86
2018-07-20T11:59:43.693Z,30.98
2018-07-20T12:00:43.704Z,30.98
2018-07-20T12:01:43.714Z,30.98
2018-07-20T12:02:43.470Z,31.06
2018-07-20T12:03:43.717Z,31.13
2018-07-20T12:04:43.475Z,31.19
2018-07-20T12:05:43.745Z,31.2
2018-07-20T12:06:43.736Z,31.35
2018-07-20T12:07:43.759Z,31.34
2018-07-20T12:08:43.747Z,31.44
2018-07-20T12:09:43.752Z,31.38
2018-07-20T12:10:43.759Z,31.48
2018-07-20T12:11:43.761Z,31.54
2018-07-20T12:12:43.516Z,31.63
2018-07-20T12:13:43.782Z,31.78
2018-07-20T12:14:43.778Z,31.85
2018-07-20T12:15:43.810Z,31.89
2018-07-20T12:16:43.804Z,31.73
2018-07-20T12:17:43.804Z,31.72
2018-07-20T12:18:43.555Z,31.66
2018-07-20T12:19:43.812Z,31.5
2018-07-20T12:20:43.822Z,31.39
2018-07-20T12:21:43.833Z,31.25
2018-07-20T12:22:43.841Z,31.02
2018-07-20T12:23:43.839Z,31.02
2018-07-20T12:24:43.845Z,30.95
2018-07-20T12:25:43.861Z,30.91
2018-07-20T12:26:43.612Z,30.84
2018-07-20T12:27:43.862Z,30.84
2018-07-20T12:28:43.895Z,30.86
2018-07-20T12:29:43.878Z,30.95
2018-07-20T12:30:43.888Z,30.98
2018-07-20T12:31:43.639Z,31.07
2018-07-20T12:32:43.638Z,31.17
2018-07-20T12:33:43.644Z,31.19
2018-07-20T12:34:43.660Z,31.32
2018-07-20T12:35:43.659Z,31.31
2018-07-20T12:36:43.914Z,31.19
2018-07-20T12:37:43.926Z,31.09
2018-07-20T12:38:43.931Z,30.98
2018-07-20T12:39:43.930Z,30.97
2018-07-20T12:40:43.936Z,30.99
2018-07-20T12:41:43.951Z,31.09
2018-07-20T12:42:44.160Z,31.09
2018-07-20T12:43:43.712Z,31.01
2018-07-20T12:44:43.966Z,30.92
2018-07-20T12:45:44.000Z,30.88
2018-07-20T12:46:43.867Z,30.57
2018-07-20T12:47:43.979Z,30.38
2018-07-20T12:48:43.752Z,30.32
2018-07-20T12:49:43.995Z,30.19
2018-07-20T12:50:44.005Z,30.15
2018-07-20T12:51:44.006Z,30.16
2018-07-20T12:52:44.019Z,30.01
2018-07-20T12:53:44.026Z,30.04
2018-07-20T12:54:43.517Z,29.97
2018-07-20T12:55:44.027Z,29.85
2018-07-20T12:56:44.048Z,29.74